Time;durP1;ratioP1;P1;durP2;ratioP2;P2;SDS_P1;SDS_P2;PMS_P1;PMS_P2;Temp;Humidity;BMP_temperature;BMP_pressure;BME280_temperature;BME280_humidity;BME280_pressure;Samples;Min_cycle;Max_cycle;Signal;HPM_P1;HPM_P2
2022/04/04 00:02:16;;;;;;;;;;;;;;;6.78;50.82;101532.22;5050279;28;20370;-78
2022/04/04 00:04:42;;;;;;;;;;;;;;;6.61;50.90;101533.81;5053164;28;19926;-78
2022/04/04 00:07:07;;;;;;;;;;;;;;;6.73;51.19;101528.75;5050903;28;20206;-78
2022/04/04 00:09:32;;;;;;;;;;;;;;;6.86;51.14;101532.28;5059251;28;19971;-78
2022/04/04 00:11:58;;;;;;;;;;;;;;;6.70;50.85;101528.72;5047171;28;19925;-76
2022/04/04 00:14:23;;;;;;;;;;;;;;;6.65;51.36;101529.56;5057871;28;19924;-75
2022/04/04 00:16:48;;;;;;;;;;;;;;;6.55;49.79;101528.63;5050820;28;19978;-76
2022/04/04 00:19:14;;;;;;;;;;;;;;;6.44;50.50;101525.94;5044748;28;19931;-75
2022/04/04 00:21:40;;;;;;;;;;;;;;;6.76;49.56;101510.69;5051990;28;19932;-75
2022/04/04 00:24:05;;;;;;;;;;;;;;;6.69;49.73;101508.94;5049729;28;19924;-76
2022/04/04 00:26:31;;;;;;;;;;;;;;;6.62;50.19;101519.22;5050314;28;20011;-76
2022/04/04 00:28:56;;;;;;;;;;;;;;;6.63;50.44;101508.91;5026272;28;19943;-75
2022/04/04 00:31:21;;;;;;;;;;;;;;;6.56;50.78;101512.28;5034684;28;21292;-75
2022/04/04 00:33:46;;;;;;;;;;;;;;;6.48;50.00;101508.78;5042062;28;19964;-76
2022/04/04 00:36:13;;;;;;;;;;;;;;;6.57;50.89;101508.88;5055998;28;19932;-76
2022/04/04 00:38:38;;;;;;;;;;;;;;;6.60;50.47;101505.44;5041163;28;19927;-75
2022/04/04 00:41:10;;;;;;;;;;;;;;;6.24;51.26;101499.13;5045101;28;19920;-75
2022/04/04 00:43:36;;;;;;;;;;;;;;;6.32;50.65;101502.59;5051229;28;19925;-75
2022/04/04 00:46:01;;;;;;;;;;;;;;;6.45;50.74;101498.41;5045660;28;19924;-75
2022/04/04 00:48:27;;;;;;;;;;;;;;;6.20;51.17;101497.34;5038718;28;19960;-78
2022/04/04 00:50:52;;;;;;;;;;;;;;;6.41;51.27;101496.66;5053819;28;20540;-78
2022/04/04 00:53:17;;;;;;;;;;;;;;;6.66;50.43;101497.72;5040169;28;20753;-78
2022/04/04 00:55:43;;;;;;;;;;;;;;;6.19;51.26;101498.19;5044441;28;19928;-78
2022/04/04 00:58:09;;;;;;;;;;;;;;;6.31;50.52;101489.69;5053774;28;19925;-79
2022/04/04 01:00:34;;;;;;;;;;;;;;;6.42;50.89;101486.34;5045713;28;19920;-79
2022/04/04 01:03:00;;;;;;;;;;;;;;;6.40;51.16;101492.34;5060732;28;19921;-79
2022/04/04 01:05:26;;;;;;;;;;;;;;;6.38;50.73;101492.34;5053196;28;20385;-79
2022/04/04 01:07:51;;;;;;;;;;;;;;;6.22;51.48;101493.06;5034612;28;20564;-80
2022/04/04 01:10:16;;;;;;;;;;;;;;;6.25;51.26;101487.06;5046744;28;19935;-80
2022/04/04 01:12:51;;;;;;;;;;;;;;;6.25;51.49;101481.88;5064726;28;19924;-79
2022/04/04 01:15:17;;;;;;;;;;;;;;;6.28;52.07;101479.34;5039249;28;19933;-80
2022/04/04 01:17:42;;;;;;;;;;;;;;;6.24;51.62;101467.28;5046805;28;20318;-79
2022/04/04 01:20:08;;;;;;;;;;;;;;;6.20;52.14;101475.84;5045486;28;19975;-80
2022/04/04 01:22:33;;;;;;;;;;;;;;;5.80;52.79;101469.47;5048002;28;20436;-80
2022/04/04 01:24:59;;;;;;;;;;;;;;;5.94;52.48;101467.88;5041583;28;20027;-80
2022/04/04 01:27:24;;;;;;;;;;;;;;;6.10;51.42;101453.41;5051735;28;20391;-79
2022/04/04 01:29:50;;;;;;;;;;;;;;;6.03;51.96;101455.06;5050673;28;19924;-79
2022/04/04 01:32:15;;;;;;;;;;;;;;;6.27;50.94;101446.66;5052884;28;19917;-79
2022/04/04 01:34:41;;;;;;;;;;;;;;;6.25;51.85;101444.06;5055335;28;19975;-79
2022/04/04 01:37:06;;;;;;;;;;;;;;;6.13;52.54;101453.44;5036865;28;20371;-79
2022/04/04 01:39:31;;;;;;;;;;;;;;;6.12;51.74;101449.13;5051593;28;19924;-79
2022/04/04 01:41:57;;;;;;;;;;;;;;;6.23;51.41;101445.78;5028692;28;19925;-79
2022/04/04 01:44:22;;;;;;;;;;;;;;;6.25;52.23;101433.75;5041279;28;20118;-80
2022/04/04 01:46:47;;;;;;;;;;;;;;;6.21;51.08;101444.91;5047416;28;19921;-79
2022/04/04 01:49:13;;;;;;;;;;;;;;;6.06;51.86;101439.63;5033054;28;19928;-80
2022/04/04 01:51:39;;;;;;;;;;;;;;;6.21;51.13;101428.56;5053979;28;19924;-80
2022/04/04 01:54:04;;;;;;;;;;;;;;;6.23;51.48;101430.28;5045746;28;19990;-80
2022/04/04 01:56:30;;;;;;;;;;;;;;;6.03;51.70;101432.75;5049459;28;20014;-82
2022/04/04 01:58:55;;;;;;;;;;;;;;;6.18;51.82;101432.00;5051071;28;19972;-82
2022/04/04 02:01:22;;;;;;;;;;;;;;;6.26;51.75;101419.13;5050872;28;20399;-82
2022/04/04 02:03:51;;;;;;;;;;;;;;;6.09;52.10;101421.59;5048103;28;20025;-82
2022/04/04 02:06:20;;;;;;;;;;;;;;;5.89;52.24;101413.69;5051887;28;20015;-82
2022/04/04 02:11:57;;;;;;;;;;;;;;;5.92;52.51;101415.44;5031701;28;20036;-82
2022/04/04 02:14:22;;;;;;;;;;;;;;;5.94;51.09;101408.59;5043460;28;20039;-76
2022/04/04 02:16:48;;;;;;;;;;;;;;;6.17;52.01;101411.31;5041205;28;19921;-78
2022/04/04 02:19:13;;;;;;;;;;;;;;;6.03;51.54;101406.94;5036577;28;19938;-78
2022/04/04 02:21:39;;;;;;;;;;;;;;;6.06;51.93;101407.81;5052044;28;19928;-78
2022/04/04 02:24:04;;;;;;;;;;;;;;;6.05;51.66;101401.78;5048132;28;19963;-75
2022/04/04 02:26:29;;;;;;;;;;;;;;;5.94;52.34;101408.59;5047647;28;20377;-76
2022/04/04 02:28:55;;;;;;;;;;;;;;;5.99;52.42;101400.03;5061982;28;19917;-76
2022/04/04 02:31:20;;;;;;;;;;;;;;;5.98;51.44;101402.56;5058128;28;20006;-82
2022/04/04 02:33:48;;;;;;;;;;;;;;;6.04;51.62;101398.34;5061367;28;20026;-82
2022/04/04 02:36:14;;;;;;;;;;;;;;;5.99;52.01;101389.72;5053628;28;19929;-82
2022/04/04 02:38:39;;;;;;;;;;;;;;;6.07;51.72;101387.16;5054056;28;19974;-82
2022/04/04 02:41:05;;;;;;;;;;;;;;;5.93;51.42;101387.09;5049520;28;19917;-82
2022/04/04 02:43:30;;;;;;;;;;;;;;;6.10;51.49;101386.34;5052739;28;19978;-82
2022/04/04 02:45:56;;;;;;;;;;;;;;;6.02;51.30;101384.56;5060934;28;19990;-82
2022/04/04 02:48:21;;;;;;;;;;;;;;;5.81;52.38;101384.41;5050139;28;20016;-82
2022/04/04 02:50:47;;;;;;;;;;;;;;;5.91;51.58;101373.31;5052314;28;19925;-82
2022/04/04 02:53:12;;;;;;;;;;;;;;;5.98;51.51;101372.50;5046110;28;19916;-81
2022/04/04 02:58:22;;;;;;;;;;;;;;;5.70;52.27;101357.69;5051206;28;19940;-80
2022/04/04 03:00:47;;;;;;;;;;;;;;;5.62;52.13;101358.47;5050878;28;19928;-80
2022/04/04 03:03:13;;;;;;;;;;;;;;;5.57;52.38;101352.41;5053965;28;19932;-82
2022/04/04 03:05:39;;;;;;;;;;;;;;;5.44;53.76;101357.44;5050347;28;19960;-82
2022/04/04 03:08:05;;;;;;;;;;;;;;;5.55;51.96;101347.25;5038616;28;20277;-82
2022/04/04 03:10:34;;;;;;;;;;;;;;;5.69;52.24;101349.91;5045842;28;19948;-82
2022/04/04 03:13:00;;;;;;;;;;;;;;;5.87;52.19;101343.19;5042553;28;19924;-82
2022/04/04 03:15:26;;;;;;;;;;;;;;;5.79;52.25;101336.25;5049513;28;19929;-82
2022/04/04 03:17:53;;;;;;;;;;;;;;;5.98;51.23;101335.53;5048066;28;19924;-82
2022/04/04 03:20:19;;;;;;;;;;;;;;;5.73;51.59;101329.34;5045237;28;20019;-82
2022/04/04 03:22:45;;;;;;;;;;;;;;;5.61;51.58;101337.00;5045260;28;19921;-82
2022/04/04 03:25:12;;;;;;;;;;;;;;;5.78;52.71;101329.38;5029479;28;19948;-82
2022/04/04 03:27:38;;;;;;;;;;;;;;;5.84;51.19;101325.13;5030938;28;19967;-82
2022/04/04 03:30:05;;;;;;;;;;;;;;;5.58;51.56;101318.91;5050391;28;19928;-82
2022/04/04 03:32:31;;;;;;;;;;;;;;;5.58;52.25;101318.91;5051685;28;21848;-82
2022/04/04 03:34:56;;;;;;;;;;;;;;;5.65;51.71;101312.97;5057875;28;19924;-82
2022/04/04 03:37:22;;;;;;;;;;;;;;;5.59;52.63;101318.09;5026805;28;19929;-82
2022/04/04 03:39:47;;;;;;;;;;;;;;;5.76;51.11;101307.88;5059656;28;19920;-76
2022/04/04 03:42:12;;;;;;;;;;;;;;;5.62;51.87;101307.81;5050452;28;19921;-76
2022/04/04 03:44:38;;;;;;;;;;;;;;;5.68;51.63;101300.13;5052589;28;20010;-75
2022/04/04 03:47:03;;;;;;;;;;;;;;;5.69;51.25;101301.81;5048066;28;19921;-78
2022/04/04 03:49:29;;;;;;;;;;;;;;;5.89;51.32;101302.81;5051995;28;19940;-78
2022/04/04 03:51:54;;;;;;;;;;;;;;;5.83;51.07;101291.63;5051427;28;20015;-78
2022/04/04 03:54:20;;;;;;;;;;;;;;;5.68;50.91;101291.50;5050972;28;19924;-78
2022/04/04 03:56:46;;;;;;;;;;;;;;;5.81;52.12;101294.16;5038312;28;20076;-82
2022/04/04 03:59:11;;;;;;;;;;;;;;;5.79;52.01;101292.44;5053481;28;19916;-80
2022/04/04 04:01:36;;;;;;;;;;;;;;;5.74;52.15;101289.81;5053470;28;20401;-82
2022/04/04 04:04:02;;;;;;;;;;;;;;;5.78;50.57;101280.41;5027865;28;19994;-82
2022/04/04 04:06:28;;;;;;;;;;;;;;;5.54;52.31;101283.66;5049796;28;20012;-82
2022/04/04 04:08:54;;;;;;;;;;;;;;;5.62;51.55;101274.28;5040885;28;19929;-82
2022/04/04 04:11:19;;;;;;;;;;;;;;;5.33;53.00;101276.63;5044063;28;20412;-79
2022/04/04 04:13:45;;;;;;;;;;;;;;;5.45;51.87;101271.56;5048837;28;19923;-78
2022/04/04 04:16:13;;;;;;;;;;;;;;;5.39;52.11;101268.06;5046601;28;20023;-78
2022/04/04 04:18:39;;;;;;;;;;;;;;;5.34;52.74;101264.59;5032375;28;19931;-78
2022/04/04 04:21:04;;;;;;;;;;;;;;;5.18;53.76;101270.47;5051042;28;19925;-79
2022/04/04 04:23:30;;;;;;;;;;;;;;;5.55;52.37;101264.78;5038354;28;19917;-79
2022/04/04 04:25:55;;;;;;;;;;;;;;;5.38;52.42;101264.66;5060918;28;19931;-79
2022/04/04 04:28:20;;;;;;;;;;;;;;;5.55;52.47;101254.47;5047776;28;19960;-80
2022/04/04 04:30:46;;;;;;;;;;;;;;;5.64;52.08;101254.53;5053453;28;20548;-80
2022/04/04 04:33:11;;;;;;;;;;;;;;;5.67;51.75;101251.97;5054274;28;19925;-80
2022/04/04 04:35:37;;;;;;;;;;;;;;;5.73;51.67;101253.72;5050124;28;19924;-80
2022/04/04 04:38:04;;;;;;;;;;;;;;;5.48;52.64;101248.41;5057596;28;20676;-79
2022/04/04 04:40:29;;;;;;;;;;;;;;;5.58;52.54;101246.75;5034009;28;19921;-79
2022/04/04 04:42:55;;;;;;;;;;;;;;;5.52;51.86;101251.00;5057258;28;19925;-79
2022/04/04 04:45:23;;;;;;;;;;;;;;;5.39;52.36;101239.75;5048790;28;19929;-79
2022/04/04 04:47:49;;;;;;;;;;;;;;;5.56;51.46;101237.31;5049731;28;20011;-79
2022/04/04 04:50:16;;;;;;;;;;;;;;;5.51;52.45;101229.53;5048550;28;20472;-79
2022/04/04 04:52:42;;;;;;;;;;;;;;;5.53;52.75;101220.13;5048460;28;19917;-79
2022/04/04 04:55:07;;;;;;;;;;;;;;;5.80;50.39;101229.72;5046712;28;19925;-79
2022/04/04 04:57:33;;;;;;;;;;;;;;;5.84;50.70;101216.84;5042281;28;20217;-78
2022/04/04 04:59:59;;;;;;;;;;;;;;;5.46;51.42;101211.47;5028221;28;20396;-78
2022/04/04 05:02:25;;;;;;;;;;;;;;;5.52;52.40;101214.94;5047962;28;19925;-76
2022/04/04 05:04:50;;;;;;;;;;;;;;;5.55;51.96;101210.66;5063470;28;19927;-76
2022/04/04 05:07:15;;;;;;;;;;;;;;;5.51;51.60;101202.88;5054138;28;19917;-76
2022/04/04 05:09:41;;;;;;;;;;;;;;;5.68;51.63;101203.88;5041296;28;20006;-76
2022/04/04 05:12:07;;;;;;;;;;;;;;;5.67;51.41;101207.31;5046765;28;20573;-83
2022/04/04 05:14:32;;;;;;;;;;;;;;;5.44;51.71;101207.16;5029716;28;19939;-80
2022/04/04 05:16:57;;;;;;;;;;;;;;;5.74;51.34;101197.03;5049046;28;20022;-79
2022/04/04 05:19:22;;;;;;;;;;;;;;;5.59;52.16;101196.97;5048399;28;19928;-79
2022/04/04 05:21:48;;;;;;;;;;;;;;;5.59;51.40;101204.69;5049701;28;19924;-79
2022/04/04 05:24:14;;;;;;;;;;;;;;;5.67;51.41;101195.28;5050060;28;20434;-79
2022/04/04 05:26:40;;;;;;;;;;;;;;;5.64;52.03;101202.13;5056665;28;19921;-79
2022/04/04 05:29:05;;;;;;;;;;;;;;;5.59;51.45;101193.50;5051559;28;19923;-79
2022/04/04 05:31:34;;;;;;;;;;;;;;;5.76;50.80;101195.34;5053688;28;19928;-79
2022/04/04 05:34:01;;;;;;;;;;;;;;;5.77;50.75;101191.03;5046557;28;19925;-80
2022/04/04 05:36:27;;;;;;;;;;;;;;;5.59;51.45;101186.66;5053061;28;19925;-78
2022/04/04 05:38:52;;;;;;;;;;;;;;;5.65;51.78;101175.50;5047299;28;20044;-78
2022/04/04 05:41:18;;;;;;;;;;;;;;;6.01;50.62;101173.94;5043066;28;19973;-80
2022/04/04 05:43:44;;;;;;;;;;;;;;;5.57;52.15;101170.28;5047764;28;19959;-82
2022/04/04 05:46:10;;;;;;;;;;;;;;;5.61;51.24;101171.19;5035119;28;19921;-79
2022/04/04 05:48:36;;;;;;;;;;;;;;;5.74;50.78;101173.00;5046757;28;19928;-79
2022/04/04 05:51:02;;;;;;;;;;;;;;;5.62;50.82;101173.78;5049657;28;19924;-79
2022/04/04 05:53:27;;;;;;;;;;;;;;;5.76;50.38;101169.56;5047310;28;20003;-79
2022/04/04 05:55:52;;;;;;;;;;;;;;;6.11;50.77;101172.28;5053288;28;20023;-79
2022/04/04 05:58:19;;;;;;;;;;;;;;;5.65;50.25;101171.22;5054479;28;19927;-79
2022/04/04 06:00:44;;;;;;;;;;;;;;;5.74;51.31;101166.09;5054934;28;19928;-79
2022/04/04 06:03:10;;;;;;;;;;;;;;;6.14;49.88;101164.56;5049309;28;20447;-79
2022/04/04 06:05:35;;;;;;;;;;;;;;;6.33;49.35;101163.75;5059528;28;19927;-79
2022/04/04 06:08:01;;;;;;;;;;;;;;;6.19;49.83;101154.25;5058632;28;19978;-79
2022/04/04 06:10:27;;;;;;;;;;;;;;;6.17;49.85;101153.38;5058456;28;19952;-79
2022/04/04 06:12:53;;;;;;;;;;;;;;;5.95;50.78;101158.44;5052770;28;19964;-79
2022/04/04 06:15:19;;;;;;;;;;;;;;;5.68;51.50;101154.91;5056260;28;19928;-79
2022/04/04 06:17:44;;;;;;;;;;;;;;;6.16;50.86;101152.50;5055333;28;19932;-78
2022/04/04 06:20:10;;;;;;;;;;;;;;;6.17;50.64;101149.09;5048285;28;20348;-78
2022/04/04 06:22:39;;;;;;;;;;;;;;;6.08;49.24;101148.19;5052644;28;19921;-82
2022/04/04 06:25:05;;;;;;;;;;;;;;;6.11;50.17;101140.47;5053671;28;20027;-82
2022/04/04 06:27:30;;;;;;;;;;;;;;;6.25;49.60;101139.63;5050255;28;19928;-82
2022/04/04 06:29:56;;;;;;;;;;;;;;;6.27;49.80;101139.66;5053453;28;19925;-82
2022/04/04 06:32:24;;;;;;;;;;;;;;;6.18;50.39;101134.47;5046234;28;19921;-82
2022/04/04 06:34:49;;;;;;;;;;;;;;;6.48;48.31;101127.66;5044889;28;20320;-82
2022/04/04 06:37:15;;;;;;;;;;;;;;;6.21;49.22;101125.03;5027300;28;19932;-82
2022/04/04 06:39:40;;;;;;;;;;;;;;;6.32;50.44;101118.16;5047610;28;19925;-82
2022/04/04 06:42:06;;;;;;;;;;;;;;;6.21;48.77;101122.44;5038376;28;19935;-82
2022/04/04 06:44:31;;;;;;;;;;;;;;;6.17;50.24;101119.84;5052511;28;19935;-82
2022/04/04 06:46:56;;;;;;;;;;;;;;;6.32;48.80;101109.56;5046331;28;20015;-75
2022/04/04 06:49:22;;;;;;;;;;;;;;;6.48;47.79;101109.59;5032153;28;19925;-75
2022/04/04 06:51:48;;;;;;;;;;;;;;;6.03;50.17;101107.78;5043046;28;20012;-75
2022/04/04 06:54:13;;;;;;;;;;;;;;;6.30;49.30;101101.84;5053851;28;20007;-75
2022/04/04 06:56:38;;;;;;;;;;;;;;;6.51;49.26;101096.72;5050717;28;19991;-75
2022/04/04 06:59:04;;;;;;;;;;;;;;;6.42;48.10;101093.25;5064576;28;20404;-75
2022/04/04 07:01:31;;;;;;;;;;;;;;;6.45;49.66;101091.53;5051696;28;20255;-78
2022/04/04 07:03:57;;;;;;;;;;;;;;;6.38;48.30;101092.38;5052924;28;20428;-78
2022/04/04 07:06:23;;;;;;;;;;;;;;;6.52;49.14;101082.09;5052228;28;19920;-78
2022/04/04 07:08:48;;;;;;;;;;;;;;;6.63;48.49;101076.94;5059639;28;19929;-78
2022/04/04 07:11:14;;;;;;;;;;;;;;;6.24;49.09;101075.16;5045855;28;19920;-78
2022/04/04 07:13:39;;;;;;;;;;;;;;;6.60;47.99;101064.91;5057426;28;20435;-78
2022/04/04 07:16:05;;;;;;;;;;;;;;;6.30;48.95;101072.59;5051037;28;20603;-78
2022/04/04 07:18:30;;;;;;;;;;;;;;;5.83;49.00;101069.91;5050669;28;19924;-78
2022/04/04 07:20:55;;;;;;;;;;;;;;;6.02;49.13;101059.63;5048332;28;20408;-78
2022/04/04 07:23:21;;;;;;;;;;;;;;;6.02;49.79;101054.47;5048706;28;19971;-78
2022/04/04 07:25:49;;;;;;;;;;;;;;;6.15;48.85;101049.34;5055379;28;20411;-75
2022/04/04 07:28:15;;;;;;;;;;;;;;;6.12;48.82;101046.78;5053015;28;19943;-75
2022/04/04 07:30:40;;;;;;;;;;;;;;;6.49;47.59;101033.91;5059589;28;20445;-75
2022/04/04 07:33:08;;;;;;;;;;;;;;;6.38;48.17;101043.34;5050265;28;20341;-75
2022/04/04 07:35:33;;;;;;;;;;;;;;;6.67;46.81;101033.03;5052707;28;20024;-82
2022/04/04 07:37:58;;;;;;;;;;;;;;;6.60;47.36;101022.75;5068730;28;20007;-77
2022/04/04 07:40:24;;;;;;;;;;;;;;;6.38;48.72;101021.84;5046422;28;20019;-78
2022/04/04 07:42:50;;;;;;;;;;;;;;;6.42;48.11;101021.00;5036757;28;19925;-78
2022/04/04 07:45:15;;;;;;;;;;;;;;;6.45;47.97;101018.41;5059183;28;20026;-78
2022/04/04 07:47:41;;;;;;;;;;;;;;;6.39;47.76;101011.53;5055099;28;19994;-78
2022/04/04 07:50:08;;;;;;;;;;;;;;;6.60;46.88;101017.59;5046369;28;19927;-78
2022/04/04 07:52:34;;;;;;;;;;;;;;;6.78;46.75;101005.47;5044099;28;20436;-78
2022/04/04 07:54:59;;;;;;;;;;;;;;;6.66;47.10;100994.34;5060075;28;19936;-78
2022/04/04 07:57:24;;;;;;;;;;;;;;;6.81;44.93;100982.25;5044161;28;19924;-78
2022/04/04 07:59:51;;;;;;;;;;;;;;;7.08;45.19;100987.34;5046620;28;20300;-78
2022/04/04 08:02:17;;;;;;;;;;;;;;;7.10;45.80;100990.78;5045136;28;20023;-77
2022/04/04 08:04:42;;;;;;;;;;;;;;;7.14;44.13;100987.31;5053317;28;20023;-75
2022/04/04 08:07:07;;;;;;;;;;;;;;;6.75;44.43;100981.44;5054597;28;20420;-75
2022/04/04 08:09:33;;;;;;;;;;;;;;;7.15;43.36;100977.84;5056095;28;20433;-82
2022/04/04 08:11:58;;;;;;;;;;;;;;;7.12;44.79;100970.13;5053764;28;20428;-82
2022/04/04 08:14:23;;;;;;;;;;;;;;;6.87;45.23;100976.22;5062587;28;20541;-82
2022/04/04 08:16:50;;;;;;;;;;;;;;;7.05;45.56;100963.22;5050036;28;19966;-82
2022/04/04 08:19:15;;;;;;;;;;;;;;;7.14;43.41;100966.66;5060826;28;19928;-78
2022/04/04 08:21:42;;;;;;;;;;;;;;;7.18;44.62;100958.88;5044763;28;19947;-78
2022/04/04 08:24:07;;;;;;;;;;;;;;;7.06;44.68;100957.22;5045513;28;19924;-78
2022/04/04 08:26:34;;;;;;;;;;;;;;;7.18;44.29;100956.31;5053305;28;19932;-78
2022/04/04 08:28:59;;;;;;;;;;;;;;;7.26;44.36;100955.41;5056156;28;20329;-78
2022/04/04 08:31:25;;;;;;;;;;;;;;;7.49;43.40;100947.56;5051569;28;19921;-78
2022/04/04 08:33:50;;;;;;;;;;;;;;;7.13;44.38;100941.72;5036537;28;19924;-78
2022/04/04 08:36:16;;;;;;;;;;;;;;;7.53;44.90;100944.06;5036061;28;20019;-78
2022/04/04 08:38:41;;;;;;;;;;;;;;;7.64;43.99;100925.03;5047420;28;19988;-75
2022/04/04 08:41:08;;;;;;;;;;;;;;;7.57;45.01;100905.28;5048396;28;20011;-74
2022/04/04 08:43:35;;;;;;;;;;;;;;;7.77;42.44;100920.66;5045924;28;19971;-75
2022/04/04 08:46:01;;;;;;;;;;;;;;;7.69;44.32;100915.53;5051968;28;19944;-74
2022/04/04 08:48:29;;;;;;;;;;;;;;;7.85;43.03;100911.09;5042656;28;19921;-75
2022/04/04 08:50:55;;;;;;;;;;;;;;;7.72;42.90;100911.22;5051836;28;19971;-75
2022/04/04 08:53:20;;;;;;;;;;;;;;;7.81;42.62;100904.25;5045243;28;20449;-75
2022/04/04 08:55:45;;;;;;;;;;;;;;;7.78;43.60;100899.09;5045592;28;19932;-74
2022/04/04 08:58:11;;;;;;;;;;;;;;;7.65;42.91;100893.16;5055399;28;20015;-74
2022/04/04 09:00:38;;;;;;;;;;;;;;;8.07;41.83;100884.19;5052995;28;19933;-75
2022/04/04 09:03:04;;;;;;;;;;;;;;;7.98;44.03;100897.22;5043177;28;19968;-78
2022/04/04 09:05:31;;;;;;;;;;;;;;;7.92;43.35;100884.31;5047762;28;19967;-78
2022/04/04 09:08:07;;;;;;;;;;;;;;;7.96;42.63;100880.84;5032160;28;19921;-77
2022/04/04 09:10:34;;;;;;;;;;;;;;;8.07;43.58;100880.75;5036592;28;19929;-78
2022/04/04 09:13:10;;;;;;;;;;;;;;;7.97;42.86;100876.53;5052393;28;19925;-74
2022/04/04 09:15:56;;;;;;;;;;;;;;;8.07;40.83;100872.97;5054357;28;19935;-75
2022/04/04 09:18:41;;;;;;;;;;;;;;;8.05;42.58;100867.84;5031103;28;19921;-77
2022/04/04 09:21:08;;;;;;;;;;;;;;;7.78;42.62;100867.19;5043073;28;19927;-78
2022/04/04 09:23:34;;;;;;;;;;;;;;;7.98;42.32;100868.75;5043966;28;19931;-75
2022/04/04 09:26:00;;;;;;;;;;;;;;;8.16;42.31;100857.38;5047751;28;19925;-82
2022/04/04 09:28:26;;;;;;;;;;;;;;;7.85;41.58;100849.03;5048119;28;20028;-82
2022/04/04 09:31:08;;;;;;;;;;;;;;;8.06;42.47;100840.22;5043214;28;19924;-82
2022/04/04 09:33:37;;;;;;;;;;;;;;;8.27;42.21;100831.41;5044166;28;19931;-78
2022/04/04 09:36:04;;;;;;;;;;;;;;;8.34;42.72;100841.69;5048610;28;20435;-78
2022/04/04 09:38:30;;;;;;;;;;;;;;;8.07;41.82;100824.69;5057626;28;19921;-78
2022/04/04 09:40:56;;;;;;;;;;;;;;;8.11;42.31;100826.38;5054848;28;19920;-77
2022/04/04 09:43:21;;;;;;;;;;;;;;;8.18;42.32;100822.84;5054726;28;19931;-83
2022/04/04 09:45:47;;;;;;;;;;;;;;;8.33;41.28;100811.50;5052027;28;19925;-82
2022/04/04 09:48:13;;;;;;;;;;;;;;;8.33;44.58;100816.69;5058117;28;19924;-78
2022/04/04 09:50:44;;;;;;;;;;;;;;;8.42;42.37;100810.53;5070383;28;19931;-78
2022/04/04 09:53:19;;;;;;;;;;;;;;;8.56;40.80;100809.50;5047804;28;20102;-78
2022/04/04 09:55:44;;;;;;;;;;;;;;;8.42;42.04;100800.19;5059243;28;19925;-82
2022/04/04 09:58:12;;;;;;;;;;;;;;;8.66;42.55;100803.34;5056802;28;19974;-78
2022/04/04 10:00:39;;;;;;;;;;;;;;;8.74;42.47;100803.25;5057292;28;21528;-78
2022/04/04 10:03:07;;;;;;;;;;;;;;;8.59;44.77;100793.09;5053726;28;19928;-78
2022/04/04 10:05:34;;;;;;;;;;;;;;;8.71;42.39;100788.59;5072469;28;19951;-75
2022/04/04 10:08:00;;;;;;;;;;;;;;;8.42;40.62;100784.66;5038481;28;19959;-75
2022/04/04 10:10:26;;;;;;;;;;;;;;;8.44;41.44;100778.59;5061460;28;20261;-82
2022/04/04 10:12:52;;;;;;;;;;;;;;;8.85;42.77;100767.72;5062975;28;19980;-82
2022/04/04 10:15:18;;;;;;;;;;;;;;;8.64;43.72;100768.84;5056565;28;19944;-82
2022/04/04 10:17:44;;;;;;;;;;;;;;;8.52;41.96;100757.78;5065862;28;19987;-75
2022/04/04 10:20:11;;;;;;;;;;;;;;;8.67;42.18;100761.03;5061310;28;19921;-82
2022/04/04 10:22:36;;;;;;;;;;;;;;;8.70;40.56;100780.84;5048850;28;20074;-75
2022/04/04 10:25:02;;;;;;;;;;;;;;;8.37;42.41;100758.84;5060606;28;19929;-77
2022/04/04 10:27:28;;;;;;;;;;;;;;;8.60;42.21;100750.78;5052903;28;19928;-78
2022/04/04 10:30:04;;;;;;;;;;;;;;;8.36;41.39;100762.28;5051828;28;20459;-75
2022/04/04 10:32:30;;;;;;;;;;;;;;;8.60;41.52;100745.59;5060051;28;20568;-75
2022/04/04 10:34:56;;;;;;;;;;;;;;;8.56;39.99;100733.59;5057387;28;19925;-77
2022/04/04 10:37:25;;;;;;;;;;;;;;;8.54;43.93;100748.25;5054296;28;20386;-77
2022/04/04 10:39:51;;;;;;;;;;;;;;;8.87;44.00;100745.22;5056507;28;19920;-75
2022/04/04 10:42:33;;;;;;;;;;;;;;;8.57;42.63;100737.88;5055196;28;20478;-77
2022/04/04 10:45:00;;;;;;;;;;;;;;;8.93;41.13;100728.72;5046775;28;20402;-77
2022/04/04 10:47:27;;;;;;;;;;;;;;;8.98;43.73;100732.94;5048968;28;19971;-77
2022/04/04 10:49:56;;;;;;;;;;;;;;;8.96;41.60;100720.91;5050065;28;19936;-78
2022/04/04 10:52:41;;;;;;;;;;;;;;;8.93;42.54;100728.72;5056516;28;20484;-78
2022/04/04 10:55:25;;;;;;;;;;;;;;;8.77;41.84;100720.34;5057503;28;19924;-78
2022/04/04 10:57:56;;;;;;;;;;;;;;;8.66;43.88;100714.44;5052158;28;20019;-75
2022/04/04 11:00:30;;;;;;;;;;;;;;;9.07;42.21;100706.91;5049882;28;19979;-75
2022/04/04 11:02:55;;;;;;;;;;;;;;;8.93;40.07;100702.81;5056556;28;19931;-75
2022/04/04 11:08:05;;;;;;;;;;;;;;;8.76;39.80;100703.94;5055013;28;20014;-78
2022/04/04 11:10:48;;;;;;;;;;;;;;;8.68;39.85;100697.16;5056402;28;19994;-78
2022/04/04 11:13:17;;;;;;;;;;;;;;;8.55;40.25;100699.06;5056679;28;19929;-77
2022/04/04 11:15:43;;;;;;;;;;;;;;;8.64;42.10;100701.53;5059091;28;20023;-78
2022/04/04 11:18:09;;;;;;;;;;;;;;;8.60;43.95;100684.31;5058563;28;19930;-78
2022/04/04 11:20:36;;;;;;;;;;;;;;;8.81;43.19;100688.31;5057990;28;20335;-81
2022/04/04 11:23:11;;;;;;;;;;;;;;;8.91;41.06;100700.25;5049263;28;20280;-82
2022/04/04 11:25:48;;;;;;;;;;;;;;;8.70;43.04;100710.94;5040129;28;19930;-82
2022/04/04 11:28:15;;;;;;;;;;;;;;;8.38;46.78;100703.63;5045120;28;19972;-75
2022/04/04 11:30:40;;;;;;;;;;;;;;;8.27;48.93;100709.78;5047433;28;19921;-75
2022/04/04 11:33:11;;;;;;;;;;;;;;;8.29;51.20;100698.53;5044582;28;19925;-74
2022/04/04 11:35:36;;;;;;;;;;;;;;;8.02;48.73;100709.19;5047168;28;20427;-75
2022/04/04 11:38:05;;;;;;;;;;;;;;;8.03;51.61;100710.91;5049310;28;19956;-78
2022/04/04 11:40:34;;;;;;;;;;;;;;;7.73;53.29;100708.66;5059646;28;20451;-78
2022/04/04 11:43:06;;;;;;;;;;;;;;;7.98;53.52;100698.03;5057878;28;19921;-82
2022/04/04 11:45:40;;;;;;;;;;;;;;;7.87;50.86;100693.84;5055878;28;19947;-77
2022/04/04 11:48:10;;;;;;;;;;;;;;;7.55;51.73;100687.28;5060585;28;20382;-82
2022/04/04 11:50:37;;;;;;;;;;;;;;;7.73;51.81;100695.75;5056759;28;19925;-82
2022/04/04 11:53:35;;;;;;;;;;;;;;;7.85;50.71;100687.84;5062364;28;19948;-82
2022/04/04 11:56:04;;;;;;;;;;;;;;;7.76;52.11;100695.72;5056632;28;20383;-75
2022/04/04 11:58:31;;;;;;;;;;;;;;;7.88;52.38;100688.66;5056184;28;19924;-74
2022/04/04 12:01:01;;;;;;;;;;;;;;;7.89;51.59;100695.53;5055261;28;20415;-75
2022/04/04 12:03:27;;;;;;;;;;;;;;;7.80;53.42;100695.66;5067193;28;20015;-75
2022/04/04 12:05:53;;;;;;;;;;;;;;;7.88;51.82;100675.72;5058259;28;20014;-75
2022/04/04 12:08:19;;;;;;;;;;;;;;;8.09;51.21;100680.63;5037850;28;19924;-77
2022/04/04 12:10:46;;;;;;;;;;;;;;;7.94;51.84;100674.81;5054274;28;19912;-78
2022/04/04 12:13:21;;;;;;;;;;;;;;;7.97;50.72;100661.84;5045488;28;19935;-75
2022/04/04 12:15:48;;;;;;;;;;;;;;;8.03;51.68;100660.03;5058280;28;19974;-77
2022/04/04 12:18:21;;;;;;;;;;;;;;;8.18;52.75;100664.16;5051675;28;20324;-77
2022/04/04 12:20:47;;;;;;;;;;;;;;;8.25;52.75;100661.47;5059959;28;19920;-78
2022/04/04 12:26:02;;;;;;;;;;;;;;;7.87;52.29;100655.06;5057174;28;20043;-78
2022/04/04 12:28:29;;;;;;;;;;;;;;;8.15;52.09;100640.91;5050196;28;19924;-78
2022/04/04 12:30:54;;;;;;;;;;;;;;;8.30;51.80;100635.53;5032955;28;20381;-82
2022/04/04 12:33:29;;;;;;;;;;;;;;;8.39;52.32;100638.00;5047808;28;19925;-78
2022/04/04 12:35:54;;;;;;;;;;;;;;;8.40;50.18;100626.78;5041817;28;20289;-78
2022/04/04 12:38:38;;;;;;;;;;;;;;;8.25;51.22;100614.03;5049625;28;19929;-81
2022/04/04 12:41:15;;;;;;;;;;;;;;;8.37;50.71;100615.63;5050628;28;19913;-82
2022/04/04 12:43:41;;;;;;;;;;;;;;;8.63;52.60;100608.31;5060646;28;19979;-82
2022/04/04 12:46:20;;;;;;;;;;;;;;;8.47;52.07;100615.47;5046408;28;19925;-78
2022/04/04 12:48:45;;;;;;;;;;;;;;;7.79;51.54;100612.94;5042863;28;19933;-78
2022/04/04 12:51:23;;;;;;;;;;;;;;;7.94;52.03;100616.16;5045393;28;20662;-78
2022/04/04 12:53:50;;;;;;;;;;;;;;;7.47;52.53;100619.31;5029110;28;19928;-79
2022/04/04 12:56:15;;;;;;;;;;;;;;;7.48;52.98;100622.75;5015667;28;19925;-79
2022/04/04 12:58:40;;;;;;;;;;;;;;;7.77;52.59;100620.69;5032383;28;19917;-79